createdAt,value
2023-03-29T00:00:12.512Z,8.70
2023-03-29T00:02:42.585Z,8.10
2023-03-29T00:05:13.229Z,17.00
2023-03-29T00:07:41.774Z,12.00
2023-03-29T00:10:11.286Z,11.30
2023-03-29T00:12:39.495Z,14.70
2023-03-29T00:15:09.067Z,15.90
2023-03-29T00:17:37.177Z,16.30
2023-03-29T00:20:10.245Z,17.50
2023-03-29T00:22:39.843Z,20.20
2023-03-29T00:25:08.267Z,23.00
2023-03-29T00:27:36.702Z,24.00
2023-03-29T00:30:05.509Z,24.20
2023-03-29T00:32:34.403Z,24.70
2023-03-29T00:35:02.668Z,24.50
2023-03-29T00:37:32.112Z,27.20
2023-03-29T00:39:59.982Z,27.40
2023-03-29T00:42:28.211Z,40.50
2023-03-29T00:44:59.458Z,37.90
2023-03-29T00:47:30.963Z,36.40
2023-03-29T00:50:02.916Z,48.10
2023-03-29T00:52:34.637Z,39.00
2023-03-29T00:55:10.057Z,36.20
2023-03-29T00:57:40.642Z,37.50
2023-03-29T01:00:11.007Z,38.80
2023-03-29T01:02:43.217Z,32.50
2023-03-29T01:05:17.487Z,34.10
2023-03-29T01:07:53.769Z,31.70
2023-03-29T01:10:28.560Z,28.20
2023-03-29T01:13:02.515Z,26.90
2023-03-29T01:15:31.479Z,27.60
2023-03-29T01:18:01.972Z,24.70
2023-03-29T01:20:50.888Z,24.10
2023-03-29T01:23:38.147Z,26.30
2023-03-29T01:26:15.940Z,26.00
2023-03-29T01:28:52.608Z,24.70
2023-03-29T01:31:25.574Z,26.10
2023-03-29T01:33:59.944Z,27.40
2023-03-29T01:36:34.985Z,29.40
2023-03-29T01:39:07.034Z,27.40
2023-03-29T01:41:42.703Z,28.10
2023-03-29T01:44:15.464Z,26.70
2023-03-29T01:46:47.834Z,27.50
2023-03-29T01:49:22.865Z,27.60
2023-03-29T01:51:56.148Z,27.40
2023-03-29T01:54:28.796Z,26.50
2023-03-29T01:56:58.188Z,27.00
2023-03-29T01:59:29.249Z,27.60
2023-03-29T02:02:00.754Z,26.60
2023-03-29T02:04:34.259Z,26.80
2023-03-29T02:07:04.924Z,27.10
2023-03-29T02:09:34.759Z,28.30
2023-03-29T02:12:04.154Z,30.50
2023-03-29T02:14:33.901Z,30.80
2023-03-29T02:17:18.235Z,31.70
2023-03-29T02:19:50.350Z,34.90
2023-03-29T02:22:23.890Z,36.60
2023-03-29T02:24:59.083Z,36.40
2023-03-29T02:27:29.093Z,39.30
2023-03-29T02:29:59.062Z,35.80
2023-03-29T02:32:35.100Z,37.40
2023-03-29T02:35:08.382Z,36.60
2023-03-29T02:37:40.969Z,38.80
2023-03-29T02:40:12.650Z,37.10
2023-03-29T02:42:42.100Z,37.90
2023-03-29T02:45:14.100Z,34.70
2023-03-29T02:47:46.309Z,35.40
2023-03-29T02:50:15.075Z,37.10
2023-03-29T02:52:52.221Z,36.90
2023-03-29T02:55:23.808Z,38.00
2023-03-29T02:57:51.965Z,36.00
2023-03-29T03:00:23.232Z,37.50
2023-03-29T03:02:52.169Z,38.80
2023-03-29T03:05:20.414Z,39.70
2023-03-29T03:07:48.493Z,36.80
2023-03-29T03:10:16.652Z,36.10
2023-03-29T03:12:44.695Z,33.80
2023-03-29T03:15:13.424Z,35.30
2023-03-29T03:17:42.943Z,34.10
2023-03-29T03:20:13.773Z,36.30
2023-03-29T03:22:43.993Z,34.50
2023-03-29T03:25:13.086Z,34.80
2023-03-29T03:27:41.303Z,35.60
2023-03-29T03:30:11.006Z,35.30
2023-03-29T03:32:39.244Z,36.70
2023-03-29T03:35:09.933Z,34.30
2023-03-29T03:37:38.517Z,35.30
2023-03-29T03:40:11.884Z,34.60
2023-03-29T03:42:41.045Z,34.10
2023-03-29T03:45:10.810Z,34.10
2023-03-29T03:47:39.383Z,34.30
2023-03-29T03:50:11.548Z,34.90
2023-03-29T03:52:39.658Z,34.70
2023-03-29T03:55:08.258Z,35.50
2023-03-29T03:57:37.452Z,35.00
2023-03-29T04:00:19.109Z,35.40
2023-03-29T04:02:48.466Z,36.70
2023-03-29T04:05:18.270Z,37.00
2023-03-29T04:07:46.439Z,38.70
2023-03-29T04:10:14.581Z,36.90
2023-03-29T04:12:42.847Z,36.70
2023-03-29T04:15:12.134Z,36.60
2023-03-29T04:17:40.563Z,35.40
2023-03-29T04:20:11.609Z,35.10
2023-03-29T04:22:41.867Z,35.40
2023-03-29T04:25:11.648Z,36.10
2023-03-29T04:27:40.290Z,37.30
2023-03-29T04:30:09.500Z,37.50
2023-03-29T04:32:37.750Z,36.70
2023-03-29T04:35:06.577Z,35.90
2023-03-29T04:37:35.112Z,34.60
2023-03-29T04:40:09.615Z,34.00
2023-03-29T04:42:38.021Z,35.20
2023-03-29T04:45:07.307Z,35.70
2023-03-29T04:47:36.488Z,35.60
2023-03-29T04:50:05.144Z,35.90
2023-03-29T04:52:33.440Z,35.40
2023-03-29T04:55:02.018Z,36.80
2023-03-29T04:57:31.528Z,37.30
2023-03-29T04:59:59.444Z,37.80
2023-03-29T05:02:27.520Z,37.00
2023-03-29T05:04:56.754Z,37.10
2023-03-29T05:07:24.870Z,37.70
2023-03-29T05:09:53.354Z,37.40
2023-03-29T05:12:21.394Z,38.00
2023-03-29T05:14:50.851Z,38.30
2023-03-29T05:17:19.017Z,38.30
2023-03-29T05:19:47.884Z,38.80
2023-03-29T05:22:16.616Z,38.90
2023-03-29T05:24:44.699Z,39.50
2023-03-29T05:27:13.481Z,41.40
2023-03-29T05:29:41.816Z,42.10
2023-03-29T05:32:11.443Z,42.50
2023-03-29T05:34:39.604Z,42.40
2023-03-29T05:37:07.760Z,41.70
2023-03-29T05:39:37.994Z,42.70
2023-03-29T05:42:06.595Z,44.40
2023-03-29T05:44:34.721Z,46.20
2023-03-29T05:47:02.751Z,45.20
2023-03-29T05:49:32.707Z,47.50
2023-03-29T05:52:00.862Z,46.60
2023-03-29T05:54:28.938Z,48.20
2023-03-29T05:56:57.050Z,50.20
2023-03-29T05:59:28.274Z,47.80
2023-03-29T06:01:56.716Z,51.70
2023-03-29T06:04:25.413Z,50.00
2023-03-29T06:06:55.146Z,50.40
2023-03-29T06:09:23.089Z,54.40
2023-03-29T06:11:51.234Z,48.00
2023-03-29T06:14:19.460Z,51.80
2023-03-29T06:16:47.558Z,52.20
2023-03-29T06:19:16.000Z,52.60
2023-03-29T06:21:44.093Z,67.90
2023-03-29T06:24:13.484Z,71.30
2023-03-29T06:26:42.038Z,77.10
2023-03-29T06:29:10.291Z,90.40
2023-03-29T06:31:38.416Z,90.00
2023-03-29T06:34:06.648Z,96.00
2023-03-29T06:36:35.192Z,99.90
2023-03-29T06:39:06.456Z,99.90
2023-03-29T06:41:36.165Z,97.80
2023-03-29T06:44:05.007Z,99.60
2023-03-29T06:46:33.135Z,98.70
2023-03-29T06:49:01.399Z,99.90
2023-03-29T06:51:29.443Z,99.90
2023-03-29T06:53:57.526Z,99.90
2023-03-29T06:56:25.624Z,99.90
2023-03-29T06:58:55.058Z,99.90
2023-03-29T07:01:23.922Z,99.90
2023-03-29T07:03:52.052Z,99.90
2023-03-29T07:06:20.480Z,99.90
2023-03-29T07:08:52.267Z,99.90
2023-03-29T07:11:20.551Z,99.90
2023-03-29T07:13:49.086Z,99.90
2023-03-29T07:16:19.379Z,99.90
2023-03-29T07:18:47.649Z,99.90
2023-03-29T07:21:15.717Z,99.90
2023-03-29T07:23:43.975Z,99.90
2023-03-29T07:26:12.112Z,99.90
2023-03-29T07:28:40.452Z,99.90
2023-03-29T07:31:11.839Z,99.90
2023-03-29T07:33:41.401Z,99.60
2023-03-29T07:36:09.688Z,99.40
2023-03-29T07:38:38.512Z,99.50
2023-03-29T07:41:08.250Z,99.40
2023-03-29T07:43:36.808Z,99.50
2023-03-29T07:46:06.713Z,99.80
2023-03-29T07:48:37.144Z,99.90
2023-03-29T07:51:07.589Z,99.90
2023-03-29T07:53:35.664Z,99.90
2023-03-29T07:56:04.540Z,99.90
2023-03-29T07:58:32.599Z,99.90
2023-03-29T08:01:01.465Z,99.90
2023-03-29T08:03:29.809Z,99.90
2023-03-29T08:05:57.850Z,99.90
2023-03-29T08:08:27.924Z,99.90
2023-03-29T08:10:56.291Z,99.90
2023-03-29T08:13:24.359Z,99.90
2023-03-29T08:15:52.611Z,99.90
2023-03-29T08:18:20.740Z,99.90
2023-03-29T08:20:48.791Z,99.90
2023-03-29T08:23:16.905Z,99.90
2023-03-29T08:25:47.090Z,99.90
2023-03-29T08:28:15.222Z,99.90
2023-03-29T08:30:43.317Z,99.90
2023-03-29T08:33:12.156Z,99.90
2023-03-29T08:35:40.276Z,58.20
2023-03-29T08:38:08.440Z,48.50
2023-03-29T08:40:37.177Z,38.30
2023-03-29T08:43:32.089Z,37.80
2023-03-29T08:46:09.979Z,25.40
2023-03-29T08:48:42.205Z,19.80
2023-03-29T08:51:21.476Z,15.10
2023-03-29T08:53:53.492Z,17.00
2023-03-29T08:56:26.188Z,17.90
2023-03-29T08:58:57.201Z,25.30
2023-03-29T09:01:29.614Z,26.80
2023-03-29T09:04:05.798Z,23.20
2023-03-29T09:06:33.900Z,20.70
2023-03-29T09:09:02.359Z,18.30
2023-03-29T09:11:45.841Z,20.20
2023-03-29T09:14:33.039Z,15.90
2023-03-29T09:17:06.994Z,15.60
2023-03-29T09:19:40.427Z,15.10
2023-03-29T09:22:17.406Z,14.70
2023-03-29T09:24:57.913Z,19.50
2023-03-29T09:27:31.407Z,21.00
2023-03-29T09:30:16.851Z,25.30
2023-03-29T09:32:52.763Z,29.10
2023-03-29T09:35:24.531Z,38.00
2023-03-29T09:37:54.961Z,41.10
2023-03-29T09:40:28.330Z,39.60
2023-03-29T09:42:57.857Z,29.40
2023-03-29T09:45:27.168Z,25.80
2023-03-29T09:47:58.708Z,29.80
2023-03-29T09:50:32.348Z,36.60
2023-03-29T09:53:01.200Z,35.30
2023-03-29T09:55:32.321Z,35.10
2023-03-29T09:58:03.017Z,39.90
2023-03-29T10:00:32.545Z,35.90
2023-03-29T10:03:00.751Z,29.50
2023-03-29T10:05:32.601Z,34.40
2023-03-29T10:08:02.369Z,35.60
2023-03-29T10:10:32.991Z,50.30
2023-03-29T10:13:05.374Z,46.50
2023-03-29T10:15:34.880Z,48.20
2023-03-29T10:18:04.178Z,31.30
2023-03-29T10:20:35.547Z,38.70
2023-03-29T10:23:03.619Z,54.50
2023-03-29T10:25:33.874Z,48.40
2023-03-29T10:28:07.481Z,51.10
2023-03-29T10:30:39.173Z,48.60
2023-03-29T10:33:17.309Z,52.80
2023-03-29T10:35:45.734Z,61.10
2023-03-29T10:38:15.935Z,51.40
2023-03-29T10:40:47.390Z,67.80
2023-03-29T10:43:22.737Z,61.80
2023-03-29T10:45:54.660Z,72.20
2023-03-29T10:48:28.766Z,73.10
2023-03-29T10:51:01.016Z,87.90
2023-03-29T10:53:32.511Z,90.80
2023-03-29T10:56:13.774Z,92.30
2023-03-29T10:58:58.079Z,93.90
2023-03-29T11:01:34.937Z,94.80
2023-03-29T11:04:22.950Z,96.30
2023-03-29T11:07:14.611Z,96.90
2023-03-29T11:09:51.269Z,96.90
2023-03-29T11:12:27.112Z,96.60
2023-03-29T11:15:08.920Z,97.10
2023-03-29T11:17:52.812Z,97.30
2023-03-29T11:20:32.936Z,97.30
2023-03-29T11:23:12.868Z,97.30
2023-03-29T11:25:53.259Z,97.50
2023-03-29T11:28:28.608Z,97.60
2023-03-29T11:31:03.282Z,96.80
2023-03-29T11:33:44.937Z,95.10
2023-03-29T11:36:18.951Z,96.30
2023-03-29T11:38:55.678Z,91.60
2023-03-29T11:41:27.736Z,90.50
2023-03-29T11:44:02.428Z,93.60
2023-03-29T11:46:34.626Z,89.20
2023-03-29T11:49:09.985Z,90.00
2023-03-29T11:51:43.703Z,91.30
2023-03-29T11:54:19.039Z,87.50
2023-03-29T11:56:52.708Z,92.10
2023-03-29T11:59:27.190Z,90.30
2023-03-29T12:01:59.897Z,88.80
2023-03-29T12:04:35.162Z,87.40
2023-03-29T12:07:12.654Z,88.10
2023-03-29T12:09:46.705Z,87.20
2023-03-29T12:12:19.976Z,87.80
2023-03-29T12:15:00.103Z,88.30
2023-03-29T12:17:33.155Z,90.00
2023-03-29T12:20:08.099Z,90.40
2023-03-29T12:22:37.939Z,88.70
2023-03-29T12:25:10.370Z,89.80
2023-03-29T12:27:46.072Z,90.00
2023-03-29T12:30:43.693Z,90.90
2023-03-29T12:33:42.278Z,90.60
2023-03-29T12:36:41.623Z,91.40
2023-03-29T12:39:15.403Z,90.60
2023-03-29T12:41:48.760Z,91.20
2023-03-29T12:44:18.428Z,90.90
2023-03-29T12:46:46.625Z,90.60
2023-03-29T12:49:22.674Z,90.40
2023-03-29T12:51:53.018Z,90.90
2023-03-29T12:54:25.030Z,91.50
2023-03-29T12:56:58.537Z,91.20
2023-03-29T12:59:35.077Z,91.60
2023-03-29T13:02:08.586Z,92.00
2023-03-29T13:04:51.213Z,90.00
2023-03-29T13:07:46.324Z,89.00
2023-03-29T13:10:37.205Z,90.60
2023-03-29T13:13:19.934Z,90.10
2023-03-29T13:15:49.168Z,90.20
2023-03-29T13:18:40.060Z,90.40
2023-03-29T13:21:18.051Z,91.80
2023-03-29T13:23:58.234Z,90.90
2023-03-29T13:26:45.643Z,88.70
2023-03-29T13:29:34.404Z,87.10
2023-03-29T13:32:18.585Z,87.60
2023-03-29T13:34:52.303Z,87.00
2023-03-29T13:37:32.903Z,86.40
2023-03-29T13:40:02.367Z,86.90
2023-03-29T13:42:40.851Z,85.30
2023-03-29T13:45:17.265Z,85.40
2023-03-29T13:47:58.676Z,85.40
2023-03-29T13:50:36.699Z,88.10
2023-03-29T13:53:11.105Z,88.20
2023-03-29T13:55:46.588Z,87.10
2023-03-29T13:58:21.691Z,84.80
2023-03-29T14:00:54.983Z,86.30
2023-03-29T14:03:29.671Z,84.30
2023-03-29T14:06:01.308Z,84.30
2023-03-29T14:08:34.052Z,84.30
2023-03-29T14:11:07.855Z,85.10
2023-03-29T14:13:36.446Z,85.80
2023-03-29T14:16:09.041Z,86.10
2023-03-29T14:18:40.438Z,85.90
2023-03-29T14:21:09.320Z,85.90
2023-03-29T14:23:38.466Z,84.00
2023-03-29T14:26:11.550Z,84.70
2023-03-29T14:28:46.415Z,84.20
2023-03-29T14:31:21.887Z,84.10
2023-03-29T14:33:53.561Z,82.30
2023-03-29T14:36:23.166Z,85.00
2023-03-29T14:38:54.108Z,83.00
2023-03-29T14:41:24.480Z,83.50
2023-03-29T14:43:52.603Z,83.70
2023-03-29T14:46:22.955Z,84.00
2023-03-29T14:48:51.217Z,83.50
2023-03-29T14:51:20.098Z,83.20
2023-03-29T14:53:49.400Z,84.40
2023-03-29T14:56:24.036Z,84.50
2023-03-29T14:58:55.734Z,85.30
2023-03-29T15:01:26.886Z,86.10
2023-03-29T15:03:57.267Z,86.50
2023-03-29T15:06:26.386Z,87.10
2023-03-29T15:09:05.266Z,88.80
2023-03-29T15:11:35.117Z,88.50
2023-03-29T15:14:06.862Z,88.10
2023-03-29T15:16:38.173Z,88.40
2023-03-29T15:19:06.388Z,88.00
2023-03-29T15:21:36.145Z,88.40
2023-03-29T15:24:06.091Z,88.20
2023-03-29T15:26:37.648Z,88.80
2023-03-29T15:29:12.987Z,88.90
2023-03-29T15:31:42.837Z,90.30
2023-03-29T15:34:13.798Z,89.70
2023-03-29T15:36:43.548Z,90.00
2023-03-29T15:39:14.028Z,90.40
2023-03-29T15:41:42.543Z,90.20
2023-03-29T15:44:14.050Z,90.60
2023-03-29T15:46:42.384Z,90.60
2023-03-29T15:49:12.367Z,90.80
2023-03-29T15:51:41.211Z,90.70
2023-03-29T15:54:09.332Z,91.10
2023-03-29T15:56:44.592Z,91.00
2023-03-29T15:59:14.420Z,91.20
2023-03-29T16:01:42.591Z,90.90
2023-03-29T16:04:13.966Z,90.90
2023-03-29T16:06:42.694Z,91.00
2023-03-29T16:09:12.106Z,90.80
2023-03-29T16:11:41.284Z,91.00
2023-03-29T16:14:19.955Z,91.10
2023-03-29T16:16:48.097Z,91.10
2023-03-29T16:19:16.386Z,91.30
2023-03-29T16:21:44.907Z,91.20
2023-03-29T16:24:16.279Z,91.30
2023-03-29T16:26:44.463Z,91.60
2023-03-29T16:29:14.009Z,91.80
2023-03-29T16:31:41.901Z,91.90
2023-03-29T16:34:12.666Z,92.40
2023-03-29T16:36:40.938Z,92.40
2023-03-29T16:39:10.610Z,92.30
2023-03-29T16:41:38.853Z,92.40
2023-03-29T16:44:07.118Z,92.50
2023-03-29T16:46:36.582Z,92.60
2023-03-29T16:49:07.793Z,92.70
2023-03-29T16:51:35.938Z,92.80
2023-03-29T16:54:04.068Z,92.90
2023-03-29T16:56:32.110Z,92.90
2023-03-29T16:59:00.138Z,93.00
2023-03-29T17:01:29.152Z,93.00
2023-03-29T17:03:58.640Z,93.40
2023-03-29T17:06:27.566Z,93.30
2023-03-29T17:08:55.693Z,93.40
2023-03-29T17:11:23.844Z,93.30
2023-03-29T17:13:51.949Z,93.50
2023-03-29T17:16:20.235Z,93.70
2023-03-29T17:18:48.331Z,93.70
2023-03-29T17:21:17.795Z,93.90
2023-03-29T17:23:45.713Z,94.00
2023-03-29T17:26:14.164Z,94.00
2023-03-29T17:28:43.509Z,94.00
2023-03-29T17:31:11.646Z,94.20
2023-03-29T17:33:39.716Z,94.10
2023-03-29T17:36:08.832Z,94.20
2023-03-29T17:38:38.433Z,94.30
2023-03-29T17:41:06.999Z,94.30
2023-03-29T17:43:35.102Z,94.50
2023-03-29T17:46:03.440Z,94.50
2023-03-29T17:48:34.851Z,94.60
2023-03-29T17:51:02.924Z,94.70
2023-03-29T17:53:31.181Z,94.60
2023-03-29T17:56:00.719Z,94.70
2023-03-29T17:58:28.887Z,94.70
2023-03-29T18:00:56.965Z,94.80
2023-03-29T18:03:25.079Z,94.60
2023-03-29T18:05:54.185Z,95.00
2023-03-29T18:08:22.256Z,94.70
2023-03-29T18:10:50.299Z,94.60
2023-03-29T18:13:25.267Z,94.60
2023-03-29T18:15:56.500Z,94.60
2023-03-29T18:18:24.724Z,94.80
2023-03-29T18:20:52.853Z,94.70
2023-03-29T18:23:20.928Z,94.70
2023-03-29T18:25:48.976Z,94.60
2023-03-29T18:28:18.180Z,94.80
2023-03-29T18:30:51.637Z,94.70
2023-03-29T18:33:19.708Z,94.60
2023-03-29T18:35:50.531Z,94.60
2023-03-29T18:38:19.365Z,94.60
2023-03-29T18:40:48.684Z,94.10
2023-03-29T18:43:17.137Z,94.10
2023-03-29T18:45:47.402Z,93.50
2023-03-29T18:48:15.876Z,93.70
2023-03-29T18:50:46.388Z,93.40
2023-03-29T18:53:14.661Z,93.40
2023-03-29T18:55:43.606Z,93.50
2023-03-29T18:58:12.404Z,93.50
2023-03-29T19:00:41.593Z,93.50
2023-03-29T19:03:11.371Z,93.70
2023-03-29T19:05:40.336Z,93.70
2023-03-29T19:08:09.166Z,93.30
2023-03-29T19:10:37.511Z,94.00
2023-03-29T19:13:06.095Z,94.10
2023-03-29T19:15:34.715Z,92.90
2023-03-29T19:18:03.042Z,93.00
2023-03-29T19:20:32.533Z,93.00
2023-03-29T19:23:01.798Z,92.50
2023-03-29T19:25:30.059Z,91.40
2023-03-29T19:27:58.718Z,91.40
2023-03-29T19:30:27.102Z,90.30
2023-03-29T19:32:55.189Z,90.20
2023-03-29T19:35:23.360Z,90.00
2023-03-29T19:37:52.833Z,90.60
2023-03-29T19:40:20.967Z,90.00
2023-03-29T19:42:49.028Z,90.60
2023-03-29T19:45:17.180Z,90.10
2023-03-29T19:47:47.580Z,88.90
2023-03-29T19:50:15.921Z,89.30
2023-03-29T19:52:43.964Z,90.10
2023-03-29T19:55:13.409Z,87.60
2023-03-29T19:57:42.467Z,90.70
2023-03-29T20:00:11.553Z,90.00
2023-03-29T20:02:39.615Z,89.90
2023-03-29T20:05:08.807Z,90.00
2023-03-29T20:07:36.912Z,89.60
2023-03-29T20:10:05.609Z,88.90
2023-03-29T20:12:35.048Z,81.90
2023-03-29T20:15:03.467Z,83.40
2023-03-29T20:17:31.846Z,87.80
2023-03-29T20:19:59.974Z,87.50
2023-03-29T20:22:30.633Z,88.00
2023-03-29T20:24:58.719Z,87.80
2023-03-29T20:27:29.173Z,88.00
2023-03-29T20:29:58.600Z,88.80
2023-03-29T20:32:26.704Z,88.30
2023-03-29T20:34:54.784Z,88.20
2023-03-29T20:37:25.974Z,88.50
2023-03-29T20:39:56.641Z,90.00
2023-03-29T20:42:28.756Z,89.60
2023-03-29T20:45:00.152Z,90.60
2023-03-29T20:47:29.420Z,90.70
2023-03-29T20:49:58.005Z,90.40
2023-03-29T20:52:26.163Z,90.70
2023-03-29T20:54:54.497Z,90.30
2023-03-29T20:57:22.635Z,91.10
2023-03-29T20:59:50.783Z,94.60
2023-03-29T21:02:24.258Z,96.90
2023-03-29T21:04:53.038Z,95.90
2023-03-29T21:07:22.369Z,94.00
2023-03-29T21:09:50.598Z,87.00
2023-03-29T21:12:20.114Z,80.60
2023-03-29T21:14:48.325Z,80.80
2023-03-29T21:17:16.463Z,80.60
2023-03-29T21:19:46.147Z,82.00
2023-03-29T21:22:14.725Z,82.30
2023-03-29T21:24:42.798Z,81.20
2023-03-29T21:27:10.982Z,83.80
2023-03-29T21:29:39.058Z,83.00
2023-03-29T21:32:07.112Z,87.00
2023-03-29T21:34:35.303Z,87.80
2023-03-29T21:37:04.759Z,84.10
2023-03-29T21:39:32.629Z,83.40
2023-03-29T21:42:01.596Z,85.10
2023-03-29T21:44:30.336Z,82.00
2023-03-29T21:46:59.631Z,82.50
2023-03-29T21:49:27.737Z,82.90
2023-03-29T21:51:56.777Z,85.80
2023-03-29T21:54:26.591Z,87.50
2023-03-29T21:56:54.686Z,85.70
2023-03-29T21:59:22.730Z,88.90
2023-03-29T22:01:50.974Z,87.00
2023-03-29T22:04:29.560Z,87.80
2023-03-29T22:07:03.802Z,88.00
2023-03-29T22:09:34.769Z,89.50
2023-03-29T22:12:03.367Z,91.80
2023-03-29T22:14:34.786Z,91.40
2023-03-29T22:17:02.922Z,90.50
2023-03-29T22:19:31.013Z,99.90
2023-03-29T22:22:01.394Z,99.90
2023-03-29T22:24:29.736Z,99.90
2023-03-29T22:26:59.278Z,99.90
2023-03-29T22:29:27.117Z,99.90
2023-03-29T22:31:55.181Z,99.90
2023-03-29T22:34:23.331Z,99.90
2023-03-29T22:36:51.611Z,99.90
2023-03-29T22:39:19.676Z,99.90
2023-03-29T22:41:47.957Z,99.90
2023-03-29T22:44:17.375Z,99.90
2023-03-29T22:46:45.499Z,99.90
2023-03-29T22:49:13.660Z,99.90
2023-03-29T22:51:41.755Z,99.90
2023-03-29T22:54:09.820Z,91.90
2023-03-29T22:56:37.895Z,91.30
2023-03-29T22:59:06.469Z,91.50
2023-03-29T23:01:35.945Z,91.70
2023-03-29T23:04:04.297Z,91.50
2023-03-29T23:06:32.372Z,92.00
2023-03-29T23:09:00.434Z,91.70
2023-03-29T23:11:28.473Z,92.10
2023-03-29T23:13:56.518Z,99.90
2023-03-29T23:16:24.659Z,99.90
2023-03-29T23:18:54.125Z,99.90
2023-03-29T23:21:22.422Z,99.90
2023-03-29T23:23:50.648Z,92.50
2023-03-29T23:26:18.923Z,92.70
2023-03-29T23:28:46.999Z,92.50
2023-03-29T23:31:17.904Z,91.80
2023-03-29T23:33:46.428Z,91.60
2023-03-29T23:36:17.695Z,92.10
2023-03-29T23:38:47.785Z,92.10
2023-03-29T23:41:16.707Z,99.90
2023-03-29T23:43:47.426Z,99.90
2023-03-29T23:46:18.717Z,99.90
2023-03-29T23:48:47.381Z,92.30
2023-03-29T23:51:18.593Z,92.40
2023-03-29T23:53:47.365Z,93.10
2023-03-29T23:56:15.632Z,93.20
2023-03-29T23:58:44.403Z,93.70
